Robesonia, Pennsylvania
Current Conditions -  °F | °C
As of 2:29 AM on Thursday 23 Oct 2014 (Local Time) from KRDG Reporting Station
Overcast Overcast  
Wind Chill: 52°   Ceiling: 2600
Heat Index: 52°   Visibility: 10mi
Dew Point: 43°   Wind: 18mph
Humidity: 71%   Direction: 350°N
Pressure: 29.83"   Gusts: NA
Location:  40.35°N, 76.13°W
Report Text: KRDG 230629Z 35016KT 10SM BKN026 OVC048 11/06 A2983 RMK AO2 RAB0558E16 P0000 T01110061
Loading
Personal Weather Stations






























Interactive Weather Map
Tropical Storm Tracking
New forecast layout! Learn more

10-Day Weather Forecast

Advertisements
Track Severe Weather on mobile